createdAt,value
2022-07-31T00:01:42.066Z,100.00
2022-07-31T00:04:08.303Z,100.00
2022-07-31T00:06:34.554Z,100.00
2022-07-31T00:09:00.807Z,100.00
2022-07-31T00:11:27.045Z,100.00
2022-07-31T00:13:57.568Z,100.00
2022-07-31T00:16:24.794Z,100.00
2022-07-31T00:18:51.079Z,100.00
2022-07-31T00:21:17.310Z,100.00
2022-07-31T00:23:43.533Z,100.00
2022-07-31T00:26:09.774Z,100.00
2022-07-31T00:28:35.992Z,100.00
2022-07-31T00:31:02.232Z,100.00
2022-07-31T00:33:28.454Z,100.00
2022-07-31T00:35:54.699Z,100.00
2022-07-31T00:38:28.122Z,100.00
2022-07-31T00:40:54.407Z,100.00
2022-07-31T00:43:20.646Z,100.00
2022-07-31T00:45:46.889Z,100.00
2022-07-31T00:48:16.781Z,100.00
2022-07-31T00:50:44.376Z,100.00
2022-07-31T00:53:10.601Z,100.00
2022-07-31T00:55:51.438Z,100.00
2022-07-31T00:58:18.442Z,100.00
2022-07-31T01:00:44.723Z,100.00
2022-07-31T01:03:10.972Z,100.00
2022-07-31T01:05:37.221Z,100.00
2022-07-31T01:08:03.467Z,100.00
2022-07-31T01:10:29.838Z,100.00
2022-07-31T01:12:56.072Z,100.00
2022-07-31T01:15:22.316Z,100.00
2022-07-31T01:17:48.544Z,100.00
2022-07-31T01:20:14.819Z,100.00
2022-07-31T01:22:41.072Z,100.00
2022-07-31T01:25:07.322Z,100.00
2022-07-31T01:27:33.561Z,100.00
2022-07-31T01:30:16.046Z,100.00
2022-07-31T01:32:42.271Z,100.00
2022-07-31T01:35:08.496Z,100.00
2022-07-31T01:37:34.728Z,100.00
2022-07-31T01:40:00.961Z,100.00
2022-07-31T01:42:27.203Z,100.00
2022-07-31T01:44:53.428Z,100.00
2022-07-31T01:47:19.657Z,100.00
2022-07-31T01:49:45.898Z,100.00
2022-07-31T01:52:12.112Z,100.00
2022-07-31T01:54:38.362Z,100.00
2022-07-31T01:57:04.614Z,100.00
2022-07-31T01:59:31.655Z,100.00
2022-07-31T02:01:59.149Z,100.00
2022-07-31T02:04:25.971Z,100.00
2022-07-31T02:06:52.234Z,100.00
2022-07-31T02:09:18.501Z,100.00
2022-07-31T02:11:54.653Z,100.00
2022-07-31T02:14:21.381Z,100.00
2022-07-31T02:16:47.617Z,100.00
2022-07-31T02:19:13.856Z,100.00
2022-07-31T02:21:40.884Z,100.00
2022-07-31T02:24:07.145Z,100.00
2022-07-31T02:26:33.428Z,100.00
2022-07-31T02:28:59.638Z,100.00
2022-07-31T02:31:25.876Z,100.00
2022-07-31T02:33:52.149Z,100.00
2022-07-31T02:36:18.393Z,100.00
2022-07-31T02:38:44.614Z,100.00
2022-07-31T02:41:10.867Z,100.00
2022-07-31T02:43:37.154Z,100.00
2022-07-31T02:46:03.453Z,100.00
2022-07-31T02:48:29.677Z,100.00
2022-07-31T02:50:55.946Z,100.00
2022-07-31T02:53:22.175Z,100.00
2022-07-31T02:55:48.533Z,100.00
2022-07-31T02:58:14.763Z,100.00
2022-07-31T03:00:41.146Z,100.00
2022-07-31T03:03:07.461Z,100.00
2022-07-31T03:05:34.005Z,100.00
2022-07-31T03:08:00.282Z,100.00
2022-07-31T03:10:26.529Z,100.00
2022-07-31T03:12:52.763Z,100.00
2022-07-31T03:15:18.986Z,100.00
2022-07-31T03:17:45.214Z,100.00
2022-07-31T03:20:12.683Z,100.00
2022-07-31T03:22:38.981Z,100.00
2022-07-31T03:25:05.241Z,100.00
2022-07-31T03:27:31.449Z,100.00
2022-07-31T03:29:57.747Z,100.00
2022-07-31T03:32:24.001Z,100.00
2022-07-31T03:34:50.289Z,100.00
2022-07-31T03:37:16.552Z,100.00
2022-07-31T03:39:42.797Z,100.00
2022-07-31T03:42:12.983Z,100.00
2022-07-31T03:44:45.301Z,100.00
2022-07-31T03:47:11.529Z,100.00
2022-07-31T03:49:37.876Z,100.00
2022-07-31T03:52:08.615Z,100.00
2022-07-31T03:54:37.770Z,100.00
2022-07-31T03:57:04.053Z,100.00
2022-07-31T03:59:36.653Z,100.00
2022-07-31T04:02:07.005Z,100.00
2022-07-31T04:04:33.484Z,100.00
2022-07-31T04:06:59.741Z,100.00
2022-07-31T04:09:26.028Z,100.00
2022-07-31T04:11:52.344Z,100.00
2022-07-31T04:14:18.597Z,100.00
2022-07-31T04:16:44.865Z,100.00
2022-07-31T04:19:11.089Z,100.00
2022-07-31T04:21:37.361Z,100.00
2022-07-31T04:24:03.592Z,100.00
2022-07-31T04:26:29.847Z,100.00
2022-07-31T04:28:56.110Z,100.00
2022-07-31T04:31:23.415Z,100.00
2022-07-31T04:33:54.534Z,100.00
2022-07-31T04:36:30.385Z,100.00
2022-07-31T04:38:56.964Z,100.00
2022-07-31T04:41:23.278Z,100.00
2022-07-31T04:43:49.588Z,100.00
2022-07-31T04:46:17.660Z,100.00
2022-07-31T04:48:44.881Z,100.00
2022-07-31T04:51:11.365Z,100.00
2022-07-31T04:53:41.276Z,100.00
2022-07-31T04:56:07.530Z,100.00
2022-07-31T04:58:33.735Z,100.00
2022-07-31T05:00:59.988Z,100.00
2022-07-31T05:03:26.265Z,100.00
2022-07-31T05:05:52.568Z,100.00
2022-07-31T05:08:18.827Z,100.00
2022-07-31T05:10:45.066Z,100.00
2022-07-31T05:13:11.315Z,100.00
2022-07-31T05:15:37.567Z,100.00
2022-07-31T05:18:04.053Z,100.00
2022-07-31T05:20:30.356Z,100.00
2022-07-31T05:22:56.599Z,100.00
2022-07-31T05:25:22.855Z,100.00
2022-07-31T05:27:50.129Z,100.00
2022-07-31T05:30:16.439Z,100.00
2022-07-31T05:32:56.028Z,100.00
2022-07-31T05:35:22.325Z,100.00
2022-07-31T05:37:48.543Z,100.00
2022-07-31T05:40:14.767Z,100.00
2022-07-31T05:42:40.962Z,100.00
2022-07-31T05:45:07.188Z,100.00
2022-07-31T05:47:40.858Z,100.00
2022-07-31T05:50:07.374Z,100.00
2022-07-31T05:52:33.660Z,100.00
2022-07-31T05:54:59.904Z,100.00
2022-07-31T05:57:33.567Z,100.00
2022-07-31T06:00:00.609Z,100.00
2022-07-31T06:02:30.212Z,100.00
2022-07-31T06:04:56.452Z,100.00
2022-07-31T06:07:22.777Z,100.00
2022-07-31T06:09:49.040Z,100.00
2022-07-31T06:12:16.663Z,100.00
2022-07-31T06:14:42.896Z,100.00
2022-07-31T06:17:09.135Z,100.00
2022-07-31T06:19:35.380Z,100.00
2022-07-31T06:22:01.609Z,100.00
2022-07-31T06:24:27.846Z,100.00
2022-07-31T06:26:55.001Z,100.00
2022-07-31T06:29:40.987Z,100.00
2022-07-31T06:32:07.830Z,100.00
2022-07-31T06:34:34.050Z,100.00
2022-07-31T06:37:00.332Z,100.00
2022-07-31T06:39:28.050Z,100.00
2022-07-31T06:42:12.856Z,100.00
2022-07-31T06:44:46.387Z,100.00
2022-07-31T06:47:13.768Z,100.00
2022-07-31T06:49:41.984Z,100.00
2022-07-31T06:52:08.266Z,100.00
2022-07-31T06:54:34.555Z,100.00
2022-07-31T06:57:00.810Z,100.00
2022-07-31T06:59:39.621Z,100.00
2022-07-31T07:02:06.997Z,100.00
2022-07-31T07:04:56.283Z,100.00
2022-07-31T07:07:19.683Z,100.00
2022-07-31T07:09:46.102Z,100.00
2022-07-31T07:12:16.745Z,100.00
2022-07-31T07:14:43.358Z,100.00
2022-07-31T07:17:09.620Z,100.00
2022-07-31T07:19:35.888Z,100.00
2022-07-31T07:22:02.571Z,100.00
2022-07-31T07:24:29.000Z,100.00
2022-07-31T07:26:55.298Z,100.00
2022-07-31T07:29:21.530Z,100.00
2022-07-31T07:31:47.857Z,100.00
2022-07-31T07:34:14.127Z,100.00
2022-07-31T07:36:40.355Z,100.00
2022-07-31T07:39:06.586Z,100.00
2022-07-31T07:41:32.881Z,100.00
2022-07-31T07:43:59.113Z,100.00
2022-07-31T07:46:25.352Z,100.00
2022-07-31T07:48:51.670Z,100.00
2022-07-31T07:51:18.185Z,100.00
2022-07-31T07:53:44.445Z,100.00
2022-07-31T07:56:10.670Z,100.00
2022-07-31T07:58:36.893Z,100.00
2022-07-31T08:01:03.179Z,100.00
2022-07-31T08:03:51.059Z,100.00
2022-07-31T08:06:15.689Z,100.00
2022-07-31T08:08:41.890Z,100.00
2022-07-31T08:11:08.154Z,100.00
2022-07-31T08:13:34.429Z,100.00
2022-07-31T08:16:01.367Z,100.00
2022-07-31T08:18:28.559Z,100.00
2022-07-31T08:20:55.075Z,100.00
2022-07-31T08:23:21.452Z,100.00
2022-07-31T08:25:47.762Z,100.00
2022-07-31T08:28:19.653Z,100.00
2022-07-31T08:30:50.629Z,100.00
2022-07-31T08:33:16.943Z,100.00
2022-07-31T08:35:50.260Z,100.00
2022-07-31T08:38:17.273Z,100.00
2022-07-31T08:40:43.862Z,99.07
2022-07-31T08:43:31.207Z,98.54
2022-07-31T08:45:56.484Z,97.65
2022-07-31T08:48:22.815Z,96.18
2022-07-31T08:50:53.663Z,97.22
2022-07-31T08:53:20.205Z,96.34
2022-07-31T08:55:55.976Z,96.65
2022-07-31T08:58:23.532Z,99.10
2022-07-31T09:00:50.865Z,93.50
2022-07-31T09:03:17.194Z,91.54
2022-07-31T09:05:43.427Z,92.49
2022-07-31T09:08:14.604Z,92.61
2022-07-31T09:10:45.033Z,94.01
2022-07-31T09:13:15.631Z,93.23
2022-07-31T09:15:41.912Z,89.95
2022-07-31T09:18:08.185Z,90.42
2022-07-31T09:20:34.552Z,88.30
2022-07-31T09:23:00.863Z,86.92
2022-07-31T09:25:27.246Z,84.27
2022-07-31T09:27:53.623Z,85.21
2022-07-31T09:30:19.946Z,83.64
2022-07-31T09:32:46.287Z,80.55
2022-07-31T09:35:12.718Z,80.75
2022-07-31T09:37:39.165Z,80.32
2022-07-31T09:40:05.415Z,78.75
2022-07-31T09:42:34.377Z,79.45
2022-07-31T09:45:00.707Z,78.43
2022-07-31T09:47:27.054Z,79.56
2022-07-31T09:49:53.282Z,78.25
2022-07-31T09:52:19.571Z,77.48
2022-07-31T09:54:45.790Z,75.36
2022-07-31T09:57:12.053Z,76.54
2022-07-31T09:59:38.314Z,73.45
2022-07-31T10:02:04.643Z,75.72
2022-07-31T10:04:31.001Z,74.29
2022-07-31T10:06:57.290Z,73.03
2022-07-31T10:09:23.729Z,73.54
2022-07-31T10:11:50.051Z,69.10
2022-07-31T10:14:16.300Z,71.67
2022-07-31T10:16:42.609Z,69.95
2022-07-31T10:19:09.107Z,71.15
2022-07-31T10:21:35.392Z,71.25
2022-07-31T10:24:01.604Z,73.30
2022-07-31T10:26:50.633Z,73.45
2022-07-31T10:29:14.135Z,73.94
2022-07-31T10:31:40.421Z,73.98
2022-07-31T10:34:06.838Z,74.39
2022-07-31T10:36:33.234Z,74.75
2022-07-31T10:38:59.516Z,73.67
2022-07-31T10:41:25.934Z,72.48
2022-07-31T10:43:52.218Z,71.07
2022-07-31T10:46:18.566Z,72.79
2022-07-31T10:48:44.903Z,72.79
2022-07-31T10:51:11.395Z,73.40
2022-07-31T10:53:50.592Z,75.09
2022-07-31T10:56:20.996Z,73.52
2022-07-31T10:58:47.285Z,73.90
2022-07-31T11:01:17.610Z,73.23
2022-07-31T11:03:44.340Z,72.62
2022-07-31T11:06:10.822Z,74.33
2022-07-31T11:08:37.263Z,73.45
2022-07-31T11:11:03.836Z,72.98
2022-07-31T11:13:33.518Z,71.74
2022-07-31T11:16:03.367Z,71.63
2022-07-31T11:18:34.404Z,70.74
2022-07-31T11:21:09.533Z,69.44
2022-07-31T11:23:55.867Z,69.96
2022-07-31T11:26:33.077Z,68.06
2022-07-31T11:29:59.335Z,66.45
2022-07-31T11:31:53.661Z,68.12
2022-07-31T11:34:19.909Z,64.71
2022-07-31T11:36:51.043Z,65.24
2022-07-31T11:39:17.914Z,63.16
2022-07-31T11:41:45.617Z,67.42
2022-07-31T11:44:12.065Z,63.90
2022-07-31T11:46:38.547Z,63.15
2022-07-31T11:49:04.908Z,64.72
2022-07-31T11:51:31.265Z,64.61
2022-07-31T11:53:57.978Z,62.23
2022-07-31T11:56:24.432Z,62.49
2022-07-31T11:58:50.754Z,63.27
2022-07-31T12:01:17.115Z,62.29
2022-07-31T12:03:43.619Z,63.12
2022-07-31T12:06:10.187Z,62.99
2022-07-31T12:08:36.565Z,63.02
2022-07-31T12:11:03.012Z,63.90
2022-07-31T12:13:29.322Z,64.55
2022-07-31T12:15:55.706Z,64.43
2022-07-31T12:18:22.027Z,64.57
2022-07-31T12:20:48.378Z,66.32
2022-07-31T12:23:38.655Z,64.81
2022-07-31T12:26:01.776Z,65.58
2022-07-31T12:28:28.105Z,65.18
2022-07-31T12:30:54.554Z,65.70
2022-07-31T12:33:21.018Z,65.91
2022-07-31T12:35:55.974Z,64.42
2022-07-31T12:38:38.264Z,61.42
2022-07-31T12:41:09.612Z,61.67
2022-07-31T12:43:37.229Z,61.45
2022-07-31T12:46:03.534Z,62.50
2022-07-31T12:48:29.850Z,63.56
2022-07-31T12:50:56.166Z,62.92
2022-07-31T12:53:22.493Z,63.37
2022-07-31T12:55:49.010Z,66.28
2022-07-31T12:58:15.310Z,67.92
2022-07-31T13:00:41.531Z,69.24
2022-07-31T13:03:07.824Z,69.03
2022-07-31T13:05:34.162Z,69.98
2022-07-31T13:08:00.543Z,69.26
2022-07-31T13:10:31.898Z,69.71
2022-07-31T13:12:58.874Z,70.16
2022-07-31T13:15:25.199Z,70.31
2022-07-31T13:17:51.578Z,70.10
2022-07-31T13:20:17.942Z,68.11
2022-07-31T13:22:44.325Z,67.73
2022-07-31T13:25:10.688Z,67.40
2022-07-31T13:27:36.971Z,68.29
2022-07-31T13:30:03.579Z,63.43
2022-07-31T13:32:30.049Z,63.81
2022-07-31T13:35:26.860Z,59.62
2022-07-31T13:37:42.768Z,58.78
2022-07-31T13:40:09.001Z,57.71
2022-07-31T13:42:36.767Z,56.48
2022-07-31T13:45:08.051Z,53.27
2022-07-31T13:47:50.677Z,51.87
2022-07-31T13:50:18.075Z,50.25
2022-07-31T13:52:44.305Z,48.15
2022-07-31T13:55:10.541Z,51.35
2022-07-31T13:57:36.768Z,48.01
2022-07-31T14:00:03.091Z,47.76
2022-07-31T14:02:29.355Z,45.87
2022-07-31T14:04:55.712Z,46.46
2022-07-31T14:07:23.725Z,45.65
2022-07-31T14:10:10.010Z,45.43
2022-07-31T14:12:36.264Z,45.70
2022-07-31T14:15:02.540Z,46.82
2022-07-31T14:17:28.913Z,45.13
2022-07-31T14:19:55.206Z,45.27
2022-07-31T14:22:21.689Z,46.54
2022-07-31T14:24:50.722Z,45.84
2022-07-31T14:27:17.729Z,45.06
2022-07-31T14:29:44.241Z,44.24
2022-07-31T14:32:10.531Z,44.46
2022-07-31T14:34:36.839Z,44.02
2022-07-31T14:37:03.547Z,42.70
2022-07-31T14:39:30.043Z,42.44
2022-07-31T14:41:56.359Z,43.02
2022-07-31T14:44:23.950Z,43.78
2022-07-31T14:46:55.299Z,44.21
2022-07-31T14:49:21.809Z,44.93
2022-07-31T14:51:48.179Z,46.53
2022-07-31T14:54:14.637Z,45.46
2022-07-31T14:57:00.226Z,45.85
2022-07-31T14:59:27.202Z,45.19
2022-07-31T15:01:53.624Z,46.19
2022-07-31T15:04:20.103Z,46.56
2022-07-31T15:06:56.016Z,47.24
2022-07-31T15:09:32.921Z,47.38
2022-07-31T15:12:01.460Z,46.73
2022-07-31T15:14:28.233Z,48.42
2022-07-31T15:16:54.511Z,47.49
2022-07-31T15:19:20.799Z,48.09
2022-07-31T15:22:16.300Z,48.47
2022-07-31T15:24:33.267Z,49.06
2022-07-31T15:26:59.555Z,48.29
2022-07-31T15:29:25.915Z,49.06
2022-07-31T15:32:12.178Z,48.18
2022-07-31T15:34:38.450Z,48.14
2022-07-31T15:37:05.044Z,49.11
2022-07-31T15:39:31.548Z,48.58
2022-07-31T15:41:57.931Z,48.32
2022-07-31T15:44:24.184Z,47.73
2022-07-31T15:46:50.461Z,47.41
2022-07-31T15:49:16.832Z,46.33
2022-07-31T15:51:43.063Z,47.03
2022-07-31T15:54:09.399Z,45.84
2022-07-31T15:56:35.695Z,45.80
2022-07-31T15:59:01.951Z,45.77
2022-07-31T16:01:28.276Z,45.86
2022-07-31T16:03:54.524Z,46.67
2022-07-31T16:06:20.954Z,46.88
2022-07-31T16:08:54.522Z,47.09
2022-07-31T16:11:20.823Z,45.63
2022-07-31T16:13:47.075Z,45.79
2022-07-31T16:16:13.305Z,45.64
2022-07-31T16:18:39.548Z,45.44
2022-07-31T16:21:05.765Z,46.31
2022-07-31T16:23:32.045Z,45.56
2022-07-31T16:25:58.324Z,45.62
2022-07-31T16:28:24.550Z,45.57
2022-07-31T16:30:50.800Z,46.12
2022-07-31T16:33:17.064Z,45.71
2022-07-31T16:35:43.287Z,46.41
2022-07-31T16:38:09.532Z,45.35
2022-07-31T16:40:35.732Z,45.98
2022-07-31T16:43:02.263Z,46.19
2022-07-31T16:45:48.236Z,46.69
2022-07-31T16:48:14.774Z,46.82
2022-07-31T16:50:41.010Z,46.29
2022-07-31T16:53:07.280Z,46.35
2022-07-31T16:55:46.084Z,45.80
2022-07-31T16:58:24.729Z,44.07
2022-07-31T17:00:51.255Z,43.52
2022-07-31T17:04:02.077Z,43.77
2022-07-31T17:06:03.937Z,42.94
2022-07-31T17:08:30.300Z,43.75
2022-07-31T17:10:56.615Z,42.97
2022-07-31T17:13:22.930Z,43.17
2022-07-31T17:15:49.261Z,43.98
2022-07-31T17:18:15.501Z,43.88
2022-07-31T17:20:43.567Z,42.90
2022-07-31T17:23:09.907Z,43.79
2022-07-31T17:25:36.152Z,43.17
2022-07-31T17:28:02.417Z,43.95
2022-07-31T17:30:28.643Z,44.29
2022-07-31T17:32:54.917Z,44.81
2022-07-31T17:35:21.165Z,45.39
2022-07-31T17:37:47.404Z,45.92
2022-07-31T17:40:33.871Z,46.55
2022-07-31T17:42:59.916Z,48.81
2022-07-31T17:45:26.743Z,49.49
2022-07-31T17:48:04.037Z,47.86
2022-07-31T17:50:30.313Z,47.94
2022-07-31T17:52:56.571Z,48.17
2022-07-31T17:55:22.822Z,48.73
2022-07-31T17:57:49.060Z,49.32
2022-07-31T18:00:16.460Z,50.09
2022-07-31T18:02:42.782Z,49.00
2022-07-31T18:05:09.147Z,48.76
2022-07-31T18:07:35.369Z,49.39
2022-07-31T18:10:01.683Z,49.02
2022-07-31T18:12:27.930Z,49.06
2022-07-31T18:15:14.163Z,49.47
2022-07-31T18:17:40.386Z,48.59
2022-07-31T18:20:06.642Z,49.39
2022-07-31T18:22:34.789Z,48.77
2022-07-31T18:25:15.153Z,49.49
2022-07-31T18:27:41.381Z,49.26
2022-07-31T18:30:07.619Z,49.06
2022-07-31T18:32:34.114Z,48.96
2022-07-31T18:35:00.394Z,49.92
2022-07-31T18:37:27.181Z,48.68
2022-07-31T18:39:53.450Z,49.78
2022-07-31T18:42:20.010Z,50.58
2022-07-31T18:44:46.318Z,50.84
2022-07-31T18:47:12.646Z,49.49
2022-07-31T18:50:58.252Z,50.93
2022-07-31T18:52:25.391Z,50.33
2022-07-31T18:54:54.510Z,51.99
2022-07-31T18:57:20.955Z,51.45
2022-07-31T18:59:47.257Z,51.44
2022-07-31T19:02:14.133Z,50.88
2022-07-31T19:04:41.014Z,51.41
2022-07-31T19:07:07.324Z,51.88
2022-07-31T19:09:33.640Z,50.88
2022-07-31T19:12:02.587Z,50.45
2022-07-31T19:14:32.509Z,50.70
2022-07-31T19:16:58.796Z,50.18
2022-07-31T19:19:25.164Z,50.40
2022-07-31T19:21:54.743Z,51.00
2022-07-31T19:24:21.004Z,50.82
2022-07-31T19:26:47.291Z,50.92
2022-07-31T19:29:13.579Z,50.89
2022-07-31T19:31:39.809Z,51.49
2022-07-31T19:34:06.057Z,51.45
2022-07-31T19:36:32.341Z,51.24
2022-07-31T19:38:58.622Z,51.87
2022-07-31T19:41:24.857Z,52.12
2022-07-31T19:43:51.195Z,52.38
2022-07-31T19:46:17.579Z,52.88
2022-07-31T19:48:44.076Z,52.95
2022-07-31T19:51:10.389Z,53.76
2022-07-31T19:53:36.707Z,54.89
2022-07-31T19:56:03.151Z,54.95
2022-07-31T19:58:29.524Z,54.44
2022-07-31T20:00:55.895Z,54.77
2022-07-31T20:03:22.600Z,56.30
2022-07-31T20:05:48.908Z,55.33
2022-07-31T20:08:15.406Z,56.35
2022-07-31T20:10:41.956Z,56.59
2022-07-31T20:13:08.337Z,56.59
2022-07-31T20:15:50.988Z,56.82
2022-07-31T20:18:25.197Z,58.53
2022-07-31T20:20:56.549Z,57.26
2022-07-31T20:23:23.313Z,58.40
2022-07-31T20:25:49.560Z,59.46
2022-07-31T20:28:15.850Z,60.82
2022-07-31T20:30:42.204Z,59.99
2022-07-31T20:33:11.122Z,60.50
2022-07-31T20:35:49.324Z,60.17
2022-07-31T20:38:16.345Z,61.93
2022-07-31T20:40:42.703Z,63.31
2022-07-31T20:43:22.556Z,62.59
2022-07-31T20:45:48.928Z,61.17
2022-07-31T20:48:15.375Z,61.05
2022-07-31T20:50:41.828Z,60.88
2022-07-31T20:53:09.426Z,61.16
2022-07-31T20:55:35.806Z,61.32
2022-07-31T20:58:02.256Z,61.57
2022-07-31T21:00:28.602Z,61.78
2022-07-31T21:02:54.831Z,61.58
2022-07-31T21:05:27.146Z,60.87
2022-07-31T21:07:53.767Z,60.17
2022-07-31T21:10:20.092Z,60.60
2022-07-31T21:12:46.407Z,61.71
2022-07-31T21:15:40.600Z,62.67
2022-07-31T21:17:59.025Z,62.87
2022-07-31T21:20:49.580Z,63.94
2022-07-31T21:23:11.606Z,63.75
2022-07-31T21:25:37.859Z,64.43
2022-07-31T21:28:04.131Z,64.67
2022-07-31T21:30:30.350Z,66.07
2022-07-31T21:32:56.683Z,66.97
2022-07-31T21:35:36.468Z,68.18
2022-07-31T21:38:03.652Z,67.44
2022-07-31T21:40:30.124Z,67.17
2022-07-31T21:42:57.182Z,68.80
2022-07-31T21:45:23.746Z,68.62
2022-07-31T21:47:52.982Z,69.13
2022-07-31T21:50:29.157Z,68.72
2022-07-31T21:52:55.881Z,69.41
2022-07-31T21:55:22.130Z,69.05
2022-07-31T21:57:58.710Z,70.63
2022-07-31T22:00:26.378Z,71.66
2022-07-31T22:02:56.385Z,71.35
2022-07-31T22:05:22.679Z,72.02
2022-07-31T22:07:49.127Z,72.56
2022-07-31T22:10:15.456Z,72.68
2022-07-31T22:12:41.905Z,71.81
2022-07-31T22:15:10.296Z,74.18
2022-07-31T22:17:40.085Z,73.34
2022-07-31T22:20:06.530Z,70.12
2022-07-31T22:22:32.752Z,69.69
2022-07-31T22:24:59.028Z,70.17
2022-07-31T22:27:25.265Z,69.93
2022-07-31T22:29:51.572Z,71.02
2022-07-31T22:32:18.026Z,71.81
2022-07-31T22:34:44.367Z,72.75
2022-07-31T22:37:10.685Z,73.58
2022-07-31T22:39:38.451Z,74.71
2022-07-31T22:42:05.009Z,75.23
2022-07-31T22:44:31.473Z,75.59
2022-07-31T22:46:57.913Z,76.92
2022-07-31T22:49:24.330Z,78.50
2022-07-31T22:51:50.791Z,79.15
2022-07-31T22:54:17.142Z,81.66
2022-07-31T22:56:43.581Z,82.36
2022-07-31T22:59:10.150Z,83.94
2022-07-31T23:01:36.643Z,84.80
2022-07-31T23:04:02.932Z,85.79
2022-07-31T23:06:32.548Z,86.81
2022-07-31T23:08:59.333Z,88.06
2022-07-31T23:11:25.632Z,88.33
2022-07-31T23:13:51.990Z,89.89
2022-07-31T23:16:18.299Z,90.61
2022-07-31T23:18:44.646Z,91.92
2022-07-31T23:21:11.088Z,92.84
2022-07-31T23:23:37.427Z,93.96
2022-07-31T23:26:03.679Z,96.01
2022-07-31T23:28:29.913Z,97.77
2022-07-31T23:30:56.152Z,99.29
2022-07-31T23:33:22.379Z,100.00
2022-07-31T23:35:48.620Z,100.00
2022-07-31T23:38:14.845Z,100.00
2022-07-31T23:40:41.092Z,100.00
2022-07-31T23:43:07.312Z,100.00
2022-07-31T23:45:33.559Z,100.00
2022-07-31T23:48:00.453Z,100.00
2022-07-31T23:50:26.963Z,100.00
2022-07-31T23:52:53.197Z,100.00
2022-07-31T23:55:19.453Z,100.00
2022-07-31T23:57:45.675Z,100.00
